Jastrebac I + 6 Barz — YT2423 — position and weather

sailwx.info

Track history (hours):
 
Tides and Currents Weather Stations Pressure Air Temp Water Temp Dewpoint Dewpoint Depression Visibility Wind Speed Wind Dir Waves Ship Positions

Jastrebac I + 6 Barz

Last reported at 2018-Feb-19 12:10 UTC. Time now 2018-Feb-22 03:10 UTC.
Position N 45°14' E 019°46'.

Length 33 m; draft 2 m.

Type: Ship. MMSI: 279202423.

Date/timePositionNaut miles runAvg speedWind from/ knotsBaromVisibWave heightAir tempDewpointWater temp
2018-Feb-19 12:10N 45°14' E 019°46'0 0.0
2018-Feb-19 11:56N 45°14' E 019°46'0 0.0
2018-Feb-19 11:13N 45°14' E 019°46'0 0.0
2018-Feb-19 10:57N 45°14' E 019°46'0 0.0
2018-Feb-19 10:30N 45°14' E 019°46'0 0.0
2018-Feb-19 10:00N 45°14' E 019°46'0 0.0
2018-Feb-19 09:30N 45°14' E 019°46'0 0.0
2018-Feb-19 07:46N 45°14' E 019°46'0 0.0
2018-Feb-19 07:28N 45°14' E 019°46'0 0.0
2018-Feb-19 05:34N 45°14' E 019°46'0 0.1
2018-Feb-19 05:31N 45°14' E 019°46'0 0.2
2018-Feb-19 05:01N 45°14' E 019°46'0 0.3
2018-Feb-19 04:29N 45°14' E 019°46'0 0.0
2018-Feb-19 04:00N 45°14' E 019°46'0 0.0
2018-Feb-19 03:30N 45°14' E 019°46'0 0.0
2018-Feb-19 02:58N 45°14' E 019°46'0 0.0
2018-Feb-19 02:26N 45°14' E 019°46'0 0.0
2018-Feb-19 01:51N 45°14' E 019°46'0 0.0
2018-Feb-19 01:28N 45°14' E 019°46'0 0.0
2018-Feb-19 00:42N 45°14' E 019°46'0 0.0
2018-Feb-19 00:16N 45°14' E 019°46'0 0.2
2018-Feb-19 00:00N 45°14' E 019°46'1 1.4
2018-Feb-18 23:09N 45°13' E 019°48'1 3.8
2018-Feb-18 23:00N 45°13' E 019°48'3 3.5
2018-Feb-18 22:13N 45°15' E 019°52'1 3.8
2018-Feb-18 22:00N 45°16' E 019°51'2 3.2
2018-Feb-18 21:31N 45°15' E 019°54'0 0.8
2018-Feb-18 21:01N 45°15' E 019°54'0 0.3
2018-Feb-18 20:31N 45°15' E 019°54'2 3.8
2018-Feb-18 20:00N 45°15' E 019°52'4 7.0
2018-Feb-18 19:30N 45°13' E 019°47'1 1.9
2018-Feb-18 19:00N 45°14' E 019°46'0 0.1
2018-Feb-18 16:57N 45°14' E 019°46'0 0.0
2018-Feb-18 16:30N 45°14' E 019°46'0 0.0
2018-Feb-18 16:00N 45°14' E 019°46'0 0.0
2018-Feb-18 15:21N 45°14' E 019°46'0 0.0
2018-Feb-18 15:00N 45°14' E 019°46'0 0.0
2018-Feb-18 14:31N 45°14' E 019°46'0 0.0
2018-Feb-18 14:00N 45°14' E 019°46'0 0.0
2018-Feb-18 13:30N 45°14' E 019°46'0 0.0
2018-Feb-18 13:00N 45°14' E 019°46'0 0.0
2018-Feb-18 12:31N 45°14' E 019°46'0 0.0
2018-Feb-18 12:00N 45°14' E 019°46'0 0.0
2018-Feb-18 11:31N 45°14' E 019°46'0 0.0
2018-Feb-18 11:00N 45°14' E 019°46'0 0.0
2018-Feb-18 10:30N 45°14' E 019°46'0 0.0
2018-Feb-18 10:00N 45°14' E 019°46'0 0.0
2018-Feb-18 09:31N 45°14' E 019°46'0 0.0
2018-Feb-18 08:58N 45°14' E 019°46'0 0.0
2018-Feb-18 08:30N 45°14' E 019°46'0 0.0
2018-Feb-18 08:01N 45°14' E 019°46'0 0.0
2018-Feb-18 07:30N 45°14' E 019°46'0 0.0
2018-Feb-18 07:01N 45°14' E 019°46'0 0.0
2018-Feb-18 06:30N 45°14' E 019°46'0 0.0
2018-Feb-18 06:00N 45°14' E 019°46'0 0.0
2018-Feb-18 05:30N 45°14' E 019°46'0 0.0
2018-Feb-18 05:00N 45°14' E 019°46'0 0.0
2018-Feb-18 04:30N 45°14' E 019°46'0 0.0
2018-Feb-18 04:01N 45°14' E 019°46'0 0.0
2018-Feb-18 03:31N 45°14' E 019°46'0 0.0
2018-Feb-18 03:01N 45°14' E 019°46'0 0.0
2018-Feb-18 02:31N 45°14' E 019°46'0 0.0
2018-Feb-18 02:00N 45°14' E 019°46'0 0.0
2018-Feb-18 01:31N 45°14' E 019°46'0 0.0
2018-Feb-18 01:00N 45°14' E 019°46'0 0.0
2018-Feb-18 00:31N 45°14' E 019°46'0 0.0
2018-Feb-18 00:00N 45°14' E 019°46'0 0.0
2018-Feb-17 23:31N 45°14' E 019°46'0 0.0
2018-Feb-17 23:00N 45°14' E 019°46'0 0.0
2018-Feb-17 22:30N 45°14' E 019°46'0 0.0
2018-Feb-17 22:01N 45°14' E 019°46'0 0.0
2018-Feb-17 21:30N 45°14' E 019°46'0 0.0
2018-Feb-17 21:00N 45°14' E 019°46'0 0.0
2018-Feb-17 20:30N 45°14' E 019°46'0 0.0
2018-Feb-17 20:00N 45°14' E 019°46'0 0.0
2018-Feb-17 19:30N 45°14' E 019°46'0 0.0
2018-Feb-17 19:00N 45°14' E 019°46'0 0.0
2018-Feb-17 18:30N 45°14' E 019°46'0 0.0
2018-Feb-17 18:00N 45°14' E 019°46'0 0.0
2018-Feb-17 17:21N 45°14' E 019°46'0 0.0
2018-Feb-17 17:00N 45°14' E 019°46'0 0.0
2018-Feb-17 16:31N 45°14' E 019°46'0 0.0
2018-Feb-17 16:00N 45°14' E 019°46'0 0.0
2018-Feb-17 15:31N 45°14' E 019°46'0 0.0
2018-Feb-17 15:00N 45°14' E 019°46'0 0.0
2018-Feb-17 14:30N 45°14' E 019°46'0 0.0
2018-Feb-17 14:00N 45°14' E 019°46'0 0.0
2018-Feb-17 13:30N 45°14' E 019°46'0 0.0
2018-Feb-17 13:00N 45°14' E 019°46'0 0.0
2018-Feb-17 12:30N 45°14' E 019°46'0 0.0
2018-Feb-17 12:00N 45°14' E 019°46'0 0.0
2018-Feb-17 11:30N 45°14' E 019°46'0 0.0
2018-Feb-17 11:00N 45°14' E 019°46'0 0.0
2018-Feb-17 10:31N 45°14' E 019°46'0 0.0
2018-Feb-17 10:01N 45°14' E 019°46'0 0.0
2018-Feb-17 09:31N 45°14' E 019°46'0 0.0
2018-Feb-17 08:52N 45°14' E 019°46'0 0.0
2018-Feb-17 08:31N 45°14' E 019°46'0 0.0
2018-Feb-17 08:00N 45°14' E 019°46'0 0.0
2018-Feb-17 07:30N 45°14' E 019°46'0 0.0
2018-Feb-17 07:00N 45°14' E 019°46'0 0.0
2018-Feb-17 06:31N 45°14' E 019°46'0 0.0
2018-Feb-17 06:01N 45°14' E 019°46'0 0.0
2018-Feb-17 05:30N 45°14' E 019°46'0 0.0
2018-Feb-17 05:01N 45°14' E 019°46'0 0.0
2018-Feb-17 04:30N 45°14' E 019°46'0 0.0
2018-Feb-17 04:01N 45°14' E 019°46'0 0.0
2018-Feb-17 03:31N 45°14' E 019°46'0 0.0
2018-Feb-17 03:00N 45°14' E 019°46'0 0.0
2018-Feb-17 02:31N 45°14' E 019°46'0 0.0
2018-Feb-17 02:01N 45°14' E 019°46'0 0.0
2018-Feb-17 01:30N 45°14' E 019°46'0 0.0
2018-Feb-17 01:00N 45°14' E 019°46'0 0.0
2018-Feb-17 00:31N 45°14' E 019°46'0 0.0
2018-Feb-17 00:01N 45°14' E 019°46'0 0.0
2018-Feb-16 23:30N 45°14' E 019°46'0 0.0
2018-Feb-16 22:55N 45°14' E 019°46'0 0.0
2018-Feb-16 22:31N 45°14' E 019°46'0 0.0
2018-Feb-16 22:01N 45°14' E 019°46'0 0.0
2018-Feb-16 21:31N 45°14' E 019°46'0 0.0
2018-Feb-16 21:01N 45°14' E 019°46'0 0.0
2018-Feb-16 20:31N 45°14' E 019°46'0 0.0
2018-Feb-16 20:01N 45°14' E 019°46'0 0.0
2018-Feb-16 19:30N 45°14' E 019°46'0 0.0
2018-Feb-16 19:00N 45°14' E 019°46'0 0.0
2018-Feb-16 18:31N 45°14' E 019°46'0 0.0
2018-Feb-16 18:00N 45°14' E 019°46'0 0.0
2018-Feb-16 17:30N 45°14' E 019°46'0 0.0
2018-Feb-16 17:00N 45°14' E 019°46'0 0.0
2018-Feb-16 16:30N 45°14' E 019°46'0 0.0
2018-Feb-16 16:00N 45°14' E 019°46'0 0.0
2018-Feb-16 15:31N 45°14' E 019°46'0 0.0
2018-Feb-16 14:48N 45°14' E 019°46'0 0.0
2018-Feb-16 14:30N 45°14' E 019°46'0 0.0
2018-Feb-16 14:00N 45°14' E 019°46'0 0.0
2018-Feb-16 13:14N 45°14' E 019°46'0 0.0
2018-Feb-16 13:00N 45°14' E 019°46'0 0.0
2018-Feb-16 12:29N 45°14' E 019°46'0 0.0
2018-Feb-16 12:00N 45°14' E 019°46'0 0.0
2018-Feb-16 11:30N 45°14' E 019°46'0 0.0
2018-Feb-15 08:42N 45°14' E 019°46'0 0.0
2018-Feb-15 08:28N 45°14' E 019°46'0 0.0
2018-Feb-15 07:57N 45°14' E 019°46'0 0.0
2018-Feb-15 07:30N 45°14' E 019°46'0 0.0
2018-Feb-15 06:06N 45°14' E 019°46'0 0.0
2018-Feb-15 06:00N 45°14' E 019°46'0 0.0
2018-Feb-15 05:08N 45°14' E 019°46'0 0.0
2018-Feb-15 04:06N 45°14' E 019°46'0 0.0
2018-Feb-15 03:54N 45°14' E 019°46'0 0.0
2018-Feb-15 03:08N 45°14' E 019°46'0 0.0
2018-Feb-15 03:00N 45°14' E 019°46'0 0.0
2018-Feb-15 02:26N 45°14' E 019°46'0 0.0
2018-Feb-15 01:58N 45°14' E 019°46'0 0.0
2018-Feb-15 01:30N 45°14' E 019°46'0 0.0
2018-Feb-15 00:56N 45°14' E 019°46'0 0.0
2018-Feb-15 00:27N 45°14' E 019°46'0 0.0
2018-Feb-14 23:59N 45°14' E 019°46'0 0.0
2018-Feb-14 23:11N 45°14' E 019°46'0 0.0
2018-Feb-14 22:52N 45°14' E 019°46'0 0.0
2018-Feb-14 22:27N 45°14' E 019°46'0 0.0
2018-Feb-14 22:01N 45°14' E 019°46'0 0.0
2018-Feb-14 21:30N 45°14' E 019°46'0 0.0
2018-Feb-14 20:54N 45°14' E 019°46'0 0.0
2018-Feb-14 20:24N 45°14' E 019°46'0 0.0
2018-Feb-14 17:31N 45°14' E 019°46'0 0.0
2018-Feb-14 17:30N 45°14' E 019°46'0 0.0
2018-Feb-14 17:00N 45°14' E 019°46'0 0.0
2018-Feb-14 16:09N 45°14' E 019°46'0 0.0
2018-Feb-14 08:57N 45°14' E 019°46'0 0.0
2018-Feb-14 08:31N 45°14' E 019°46'0 0.0
2018-Feb-14 08:01N 45°14' E 019°46'0 0.0
2018-Feb-14 07:30N 45°14' E 019°46'0 0.0
2018-Feb-14 07:00N 45°14' E 019°46'0 0.0
2018-Feb-14 06:30N 45°14' E 019°46'0 0.0
2018-Feb-14 06:01N 45°14' E 019°46'0 0.0
2018-Feb-14 05:30N 45°14' E 019°46'0 0.0
2018-Feb-14 05:00N 45°14' E 019°46'0 0.0
2018-Feb-14 04:30N 45°14' E 019°46'0 0.0
2018-Feb-14 03:59N 45°14' E 019°46'0 0.0
2018-Feb-14 03:30N 45°14' E 019°46'0 0.0
2018-Feb-14 03:00N 45°14' E 019°46'0 0.0
2018-Feb-14 02:29N 45°14' E 019°46'0 0.0
2018-Feb-14 02:00N 45°14' E 019°46'0 0.0
2018-Feb-14 01:30N 45°14' E 019°46'0 0.0
2018-Feb-14 01:01N 45°14' E 019°46'0 0.0
2018-Feb-14 00:30N 45°14' E 019°46'0 0.0
2018-Feb-14 00:00N 45°14' E 019°46'0 0.0
2018-Feb-13 23:22N 45°14' E 019°46'0 0.0
2018-Feb-13 22:58N 45°14' E 019°46'0 0.0
2018-Feb-13 22:30N 45°14' E 019°46'0 0.0
2018-Feb-13 22:00N 45°14' E 019°46'0 0.0
2018-Feb-13 21:31N 45°14' E 019°46'0 0.0
2018-Feb-13 21:00N 45°14' E 019°46'0 0.0
2018-Feb-13 20:30N 45°14' E 019°46'0 0.0
2018-Feb-13 20:00N 45°14' E 019°46'0 0.0
2018-Feb-13 19:30N 45°14' E 019°46'0 0.0
2018-Feb-13 19:01N 45°14' E 019°46'0 0.0
2018-Feb-13 18:31N 45°14' E 019°46'0 0.0
2018-Feb-13 18:01N 45°14' E 019°46'0 0.0
2018-Feb-13 17:31N 45°14' E 019°46'0 0.0
2018-Feb-13 17:01N 45°14' E 019°46'0 0.0
2018-Feb-13 16:29N 45°14' E 019°46'0 0.0
2018-Feb-13 16:00N 45°14' E 019°46'0 0.0
2018-Feb-13 15:31N 45°14' E 019°46'0 0.0
2018-Feb-13 15:01N 45°14' E 019°46'0 0.0
2018-Feb-13 14:10N 45°14' E 019°46'0 0.0
2018-Feb-13 14:00N 45°14' E 019°46'0 0.0
2018-Feb-13 13:31N 45°14' E 019°46'0 0.0
2018-Feb-13 13:00N 45°14' E 019°46'0 0.0
2018-Feb-13 12:30N 45°14' E 019°46'0 0.0
2018-Feb-13 12:01N 45°14' E 019°46'0 0.0
2018-Feb-13 11:31N 45°14' E 019°46'0 0.0
2018-Feb-13 11:00N 45°14' E 019°46'0 0.0
2018-Feb-13 10:31N 45°14' E 019°46'0 0.0
2018-Feb-13 10:00N 45°14' E 019°46'0 0.0
2018-Feb-13 09:30N 45°14' E 019°46'0 0.0
2018-Feb-13 09:00N 45°14' E 019°46'0 0.0
2018-Feb-13 08:31N 45°14' E 019°46'0 0.0
2018-Feb-13 08:00N 45°14' E 019°46'0 0.1
2018-Feb-13 07:31N 45°14' E 019°46'0 0.0
2018-Feb-13 06:55N 45°14' E 019°46'0 0.0
2018-Feb-13 05:39N 45°14' E 019°46'0 0.0
2018-Feb-13 05:30N 45°14' E 019°46'0 0.0
2018-Feb-13 05:00N 45°14' E 019°46'0 0.0
2018-Feb-13 04:30N 45°14' E 019°46'0 0.0
2018-Feb-13 04:00N 45°14' E 019°46'0 0.0
2018-Feb-13 03:30N 45°14' E 019°46'0 0.0
2018-Feb-13 03:00N 45°14' E 019°46'0 0.0
2018-Feb-13 02:30N 45°14' E 019°46'0 0.0
2018-Feb-13 01:59N 45°14' E 019°46'0 0.0
2018-Feb-13 01:30N 45°14' E 019°46'0 0.0
2018-Feb-13 01:00N 45°14' E 019°46'0 0.0
2018-Feb-13 00:30N 45°14' E 019°46'0 0.0
2018-Feb-13 00:00N 45°14' E 019°46'0 0.0
2018-Feb-12 23:30N 45°14' E 019°46'0 0.0
2018-Feb-12 23:00N 45°14' E 019°46'0 0.0
2018-Feb-12 22:29N 45°14' E 019°46'0 0.0
2018-Feb-12 21:58N 45°14' E 019°46'0 0.0
2018-Feb-12 21:30N 45°14' E 019°46'0 0.0
2018-Feb-12 20:44N 45°14' E 019°46'0 0.0
2018-Feb-12 20:30N 45°14' E 019°46'0 0.0
2018-Feb-12 20:00N 45°14' E 019°46'0 0.0
2018-Feb-12 19:30N 45°14' E 019°46'0 0.0
2018-Feb-12 19:00N 45°14' E 019°46'0 0.0
2018-Feb-12 18:20N 45°14' E 019°46'0 0.0
2018-Feb-12 18:00N 45°14' E 019°46'0 0.0
2018-Feb-12 17:30N 45°14' E 019°46'0 0.0
2018-Feb-12 17:00N 45°14' E 019°46'0 0.0
2018-Feb-12 16:30N 45°14' E 019°46'0 0.0
2018-Feb-12 16:00N 45°14' E 019°46'0 0.0
2018-Feb-12 15:30N 45°14' E 019°46'0 0.0
2018-Feb-12 15:00N 45°14' E 019°46'0 0.4
2018-Feb-12 14:30N 45°14' E 019°46'0 0.3
2018-Feb-12 13:57N 45°14' E 019°46'0 0.0
2018-Feb-12 13:30N 45°14' E 019°46'0 0.0
2018-Feb-12 12:55N 45°14' E 019°46'0 0.0
2018-Feb-12 11:56N 45°14' E 019°46'0 0.0
2018-Feb-12 11:30N 45°14' E 019°46'0 0.0
2018-Feb-12 11:00N 45°14' E 019°46'0 0.0
2018-Feb-12 10:29N 45°14' E 019°46'0 0.0
2018-Feb-12 10:01N 45°14' E 019°46'0 0.0
2018-Feb-12 09:31N 45°14' E 019°46'0 0.0
2018-Feb-12 09:00N 45°14' E 019°46'0 0.0
2018-Feb-12 08:30N 45°14' E 019°46'0 0.1
2018-Feb-12 07:59N 45°14' E 019°46'0 0.1
2018-Feb-11 23:54N 45°14' E 019°46'18 1.0
2018-Feb-11 05:50N 45°11' E 020°11'2 2.2
2018-Feb-11 04:59N 45°10' E 020°14'2 2.5
2018-Feb-11 04:04N 45°09' E 020°16'1 2.4
2018-Feb-11 03:51N 45°08' E 020°16'1 2.1
2018-Feb-11 03:24N 45°07' E 020°17'1 2.1
2018-Feb-11 03:00N 45°07' E 020°18'3 1.9
2018-Feb-11 01:26N 45°04' E 020°20'1 2.2
2018-Feb-11 01:00N 45°03' E 020°21'1 2.1
2018-Feb-11 00:31N 45°02' E 020°22'1 2.3
2018-Feb-11 00:00N 45°01' E 020°22'1 1.9
2018-Feb-10 23:30N 45°00' E 020°21'1 1.8
2018-Feb-10 23:01N 45°00' E 020°20'1 1.8
2018-Feb-10 22:30N 44°60' E 020°19'1 1.9
2018-Feb-10 22:00N 44°59' E 020°18'1 2.1
2018-Feb-10 21:30N 44°59' E 020°17'1 1.9
2018-Feb-10 21:00N 44°58' E 020°17'1 1.8
2018-Feb-10 20:30N 44°57' E 020°18'1 2.0
2018-Feb-10 20:00N 44°56' E 020°19'1 2.0
2018-Feb-10 19:30N 44°55' E 020°20'1 2.3
2018-Feb-10 19:01N 44°54' E 020°21'1 2.5
2018-Feb-10 18:30N 44°53' E 020°21'1 2.4
2018-Feb-10 18:01N 44°52' E 020°22'1 2.3
2018-Feb-10 17:30N 44°52' E 020°24'1 2.5
2018-Feb-10 17:00N 44°51' E 020°25'1 2.6
2018-Feb-10 16:31N 44°50' E 020°27'1 2.2
2018-Feb-10 16:01N 44°50' E 020°28'1 2.1
2018-Feb-10 15:30N 44°50' E 020°30'1 2.3
2018-Feb-10 15:00N 44°50' E 020°31'1 2.4
2018-Feb-10 14:30N 44°50' E 020°33'1 2.3
2018-Feb-10 14:00N 44°51' E 020°34'1 2.3
2018-Feb-10 13:30N 44°51' E 020°36'1 2.3
2018-Feb-10 12:59N 44°51' E 020°38'1 2.3
2018-Feb-10 12:30N 44°50' E 020°38'1 2.1
2018-Feb-10 12:01N 44°49' E 020°39'1 2.2
2018-Feb-10 11:30N 44°48' E 020°38'3 2.2
2018-Feb-10 10:07N 44°45' E 020°38'0 2.1
2018-Feb-10 09:59N 44°45' E 020°39'1 2.2
2018-Feb-10 09:31N 44°44' E 020°40'10 2.0
2018-Feb-10 04:23N 44°40' E 020°53'4 2.3
2018-Feb-10 02:48N 44°42' E 020°57'2 0.7
2018-Feb-09 23:40N 44°43' E 020°60'0 0.0
2018-Feb-09 23:27N 44°43' E 020°60'0 0.0
2018-Feb-09 23:00N 44°43' E 020°60'0 0.0
2018-Feb-09 22:46N 44°43' E 020°60'0 0.0
2018-Feb-09 22:00N 44°43' E 020°60'0 0.0
2018-Feb-09 21:00N 44°43' E 020°60'0 0.2
2018-Feb-09 20:31N 44°43' E 020°60'0 0.3
2018-Feb-09 20:01N 44°43' E 020°59'0 0.2
2018-Feb-09 19:31N 44°43' E 020°60'0 0.0
2018-Feb-09 19:01N 44°43' E 020°60'0 0.0
2018-Feb-09 18:30N 44°43' E 020°60'0 0.0
2018-Feb-09 18:01N 44°43' E 020°60'0 0.0
2018-Feb-09 17:30N 44°43' E 020°60'0 0.0
2018-Feb-09 17:00N 44°43' E 020°60'0 0.0
2018-Feb-09 15:30N 44°43' E 020°60'0 0.5
2018-Feb-09 15:01N 44°43' E 020°59'0 0.2
2018-Feb-09 14:30N 44°43' E 020°59'0 0.0
2018-Feb-09 14:01N 44°43' E 020°59'0 0.0
2018-Feb-09 13:30N 44°43' E 020°59'0 0.0
2018-Feb-09 13:01N 44°43' E 020°59'  
Track history (hours):
 
Tides and Currents Weather Stations Pressure Air Temp Water Temp Dewpoint Dewpoint Depression Visibility Wind Speed Wind Dir Waves Ship Positions

Jastrebac I + 6 Barz

Last reported at 2018-Feb-19 12:10 UTC. Time now 2018-Feb-22 03:10 UTC.
Position N 45°14' E 019°46'.

Length 33 m; draft 2 m.

Type: Ship. MMSI: 279202423.

Date/timePositionNaut miles runAvg speedWind from/ knotsBaromVisibWave heightAir tempDewpointWater temp
2018-Feb-19 12:10N 45°14' E 019°46'0 0.0
2018-Feb-19 11:56N 45°14' E 019°46'0 0.0
2018-Feb-19 11:13N 45°14' E 019°46'0 0.0
2018-Feb-19 10:57N 45°14' E 019°46'0 0.0
2018-Feb-19 10:30N 45°14' E 019°46'0 0.0
2018-Feb-19 10:00N 45°14' E 019°46'0 0.0
2018-Feb-19 09:30N 45°14' E 019°46'0 0.0
2018-Feb-19 07:46N 45°14' E 019°46'0 0.0
2018-Feb-19 07:28N 45°14' E 019°46'0 0.0
2018-Feb-19 05:34N 45°14' E 019°46'0 0.1
2018-Feb-19 05:31N 45°14' E 019°46'0 0.2
2018-Feb-19 05:01N 45°14' E 019°46'0 0.3
2018-Feb-19 04:29N 45°14' E 019°46'0 0.0
2018-Feb-19 04:00N 45°14' E 019°46'0 0.0
2018-Feb-19 03:30N 45°14' E 019°46'0 0.0
2018-Feb-19 02:58N 45°14' E 019°46'0 0.0
2018-Feb-19 02:26N 45°14' E 019°46'0 0.0
2018-Feb-19 01:51N 45°14' E 019°46'0 0.0
2018-Feb-19 01:28N 45°14' E 019°46'0 0.0
2018-Feb-19 00:42N 45°14' E 019°46'0 0.0
2018-Feb-19 00:16N 45°14' E 019°46'0 0.2
2018-Feb-19 00:00N 45°14' E 019°46'1 1.4
2018-Feb-18 23:09N 45°13' E 019°48'1 3.8
2018-Feb-18 23:00N 45°13' E 019°48'3 3.5
2018-Feb-18 22:13N 45°15' E 019°52'1 3.8
2018-Feb-18 22:00N 45°16' E 019°51'2 3.2
2018-Feb-18 21:31N 45°15' E 019°54'0 0.8
2018-Feb-18 21:01N 45°15' E 019°54'0 0.3
2018-Feb-18 20:31N 45°15' E 019°54'2 3.8
2018-Feb-18 20:00N 45°15' E 019°52'4 7.0
2018-Feb-18 19:30N 45°13' E 019°47'1 1.9
2018-Feb-18 19:00N 45°14' E 019°46'0 0.1
2018-Feb-18 16:57N 45°14' E 019°46'0 0.0
2018-Feb-18 16:30N 45°14' E 019°46'0 0.0
2018-Feb-18 16:00N 45°14' E 019°46'0 0.0
2018-Feb-18 15:21N 45°14' E 019°46'0 0.0
2018-Feb-18 15:00N 45°14' E 019°46'0 0.0
2018-Feb-18 14:31N 45°14' E 019°46'0 0.0
2018-Feb-18 14:00N 45°14' E 019°46'0 0.0
2018-Feb-18 13:30N 45°14' E 019°46'0 0.0
2018-Feb-18 13:00N 45°14' E 019°46'0 0.0
2018-Feb-18 12:31N 45°14' E 019°46'0 0.0
2018-Feb-18 12:00N 45°14' E 019°46'0 0.0
2018-Feb-18 11:31N 45°14' E 019°46'0 0.0
2018-Feb-18 11:00N 45°14' E 019°46'0 0.0
2018-Feb-18 10:30N 45°14' E 019°46'0 0.0
2018-Feb-18 10:00N 45°14' E 019°46'0 0.0
2018-Feb-18 09:31N 45°14' E 019°46'0 0.0
2018-Feb-18 08:58N 45°14' E 019°46'0 0.0
2018-Feb-18 08:30N 45°14' E 019°46'0 0.0
2018-Feb-18 08:01N 45°14' E 019°46'0 0.0
2018-Feb-18 07:30N 45°14' E 019°46'0 0.0
2018-Feb-18 07:01N 45°14' E 019°46'0 0.0
2018-Feb-18 06:30N 45°14' E 019°46'0 0.0
2018-Feb-18 06:00N 45°14' E 019°46'0 0.0
2018-Feb-18 05:30N 45°14' E 019°46'0 0.0
2018-Feb-18 05:00N 45°14' E 019°46'0 0.0
2018-Feb-18 04:30N 45°14' E 019°46'0 0.0
2018-Feb-18 04:01N 45°14' E 019°46'0 0.0
2018-Feb-18 03:31N 45°14' E 019°46'0 0.0
2018-Feb-18 03:01N 45°14' E 019°46'0 0.0
2018-Feb-18 02:31N 45°14' E 019°46'0 0.0
2018-Feb-18 02:00N 45°14' E 019°46'0 0.0
2018-Feb-18 01:31N 45°14' E 019°46'0 0.0
2018-Feb-18 01:00N 45°14' E 019°46'0 0.0
2018-Feb-18 00:31N 45°14' E 019°46'0 0.0
2018-Feb-18 00:00N 45°14' E 019°46'0 0.0
2018-Feb-17 23:31N 45°14' E 019°46'0 0.0
2018-Feb-17 23:00N 45°14' E 019°46'0 0.0
2018-Feb-17 22:30N 45°14' E 019°46'0 0.0
2018-Feb-17 22:01N 45°14' E 019°46'0 0.0
2018-Feb-17 21:30N 45°14' E 019°46'0 0.0
2018-Feb-17 21:00N 45°14' E 019°46'0 0.0
2018-Feb-17 20:30N 45°14' E 019°46'0 0.0
2018-Feb-17 20:00N 45°14' E 019°46'0 0.0
2018-Feb-17 19:30N 45°14' E 019°46'0 0.0
2018-Feb-17 19:00N 45°14' E 019°46'0 0.0
2018-Feb-17 18:30N 45°14' E 019°46'0 0.0
2018-Feb-17 18:00N 45°14' E 019°46'0 0.0
2018-Feb-17 17:21N 45°14' E 019°46'0 0.0
2018-Feb-17 17:00N 45°14' E 019°46'0 0.0
2018-Feb-17 16:31N 45°14' E 019°46'0 0.0
2018-Feb-17 16:00N 45°14' E 019°46'0 0.0
2018-Feb-17 15:31N 45°14' E 019°46'0 0.0
2018-Feb-17 15:00N 45°14' E 019°46'0 0.0
2018-Feb-17 14:30N 45°14' E 019°46'0 0.0
2018-Feb-17 14:00N 45°14' E 019°46'0 0.0
2018-Feb-17 13:30N 45°14' E 019°46'0 0.0
2018-Feb-17 13:00N 45°14' E 019°46'0 0.0
2018-Feb-17 12:30N 45°14' E 019°46'0 0.0
2018-Feb-17 12:00N 45°14' E 019°46'0 0.0
2018-Feb-17 11:30N 45°14' E 019°46'0 0.0
2018-Feb-17 11:00N 45°14' E 019°46'0 0.0
2018-Feb-17 10:31N 45°14' E 019°46'0 0.0
2018-Feb-17 10:01N 45°14' E 019°46'0 0.0
2018-Feb-17 09:31N 45°14' E 019°46'0 0.0
2018-Feb-17 08:52N 45°14' E 019°46'0 0.0
2018-Feb-17 08:31N 45°14' E 019°46'0 0.0
2018-Feb-17 08:00N 45°14' E 019°46'0 0.0
2018-Feb-17 07:30N 45°14' E 019°46'0 0.0
2018-Feb-17 07:00N 45°14' E 019°46'0 0.0
2018-Feb-17 06:31N 45°14' E 019°46'0 0.0
2018-Feb-17 06:01N 45°14' E 019°46'0 0.0
2018-Feb-17 05:30N 45°14' E 019°46'0 0.0
2018-Feb-17 05:01N 45°14' E 019°46'0 0.0
2018-Feb-17 04:30N 45°14' E 019°46'0 0.0
2018-Feb-17 04:01N 45°14' E 019°46'0 0.0
2018-Feb-17 03:31N 45°14' E 019°46'0 0.0
2018-Feb-17 03:00N 45°14' E 019°46'0 0.0
2018-Feb-17 02:31N 45°14' E 019°46'0 0.0
2018-Feb-17 02:01N 45°14' E 019°46'0 0.0
2018-Feb-17 01:30N 45°14' E 019°46'0 0.0
2018-Feb-17 01:00N 45°14' E 019°46'0 0.0
2018-Feb-17 00:31N 45°14' E 019°46'0 0.0
2018-Feb-17 00:01N 45°14' E 019°46'0 0.0
2018-Feb-16 23:30N 45°14' E 019°46'0 0.0
2018-Feb-16 22:55N 45°14' E 019°46'0 0.0
2018-Feb-16 22:31N 45°14' E 019°46'0 0.0
2018-Feb-16 22:01N 45°14' E 019°46'0 0.0
2018-Feb-16 21:31N 45°14' E 019°46'0 0.0
2018-Feb-16 21:01N 45°14' E 019°46'0 0.0
2018-Feb-16 20:31N 45°14' E 019°46'0 0.0
2018-Feb-16 20:01N 45°14' E 019°46'0 0.0
2018-Feb-16 19:30N 45°14' E 019°46'0 0.0
2018-Feb-16 19:00N 45°14' E 019°46'0 0.0
2018-Feb-16 18:31N 45°14' E 019°46'0 0.0
2018-Feb-16 18:00N 45°14' E 019°46'0 0.0
2018-Feb-16 17:30N 45°14' E 019°46'0 0.0
2018-Feb-16 17:00N 45°14' E 019°46'0 0.0
2018-Feb-16 16:30N 45°14' E 019°46'0 0.0
2018-Feb-16 16:00N 45°14' E 019°46'0 0.0
2018-Feb-16 15:31N 45°14' E 019°46'0 0.0
2018-Feb-16 14:48N 45°14' E 019°46'0 0.0
2018-Feb-16 14:30N 45°14' E 019°46'0 0.0
2018-Feb-16 14:00N 45°14' E 019°46'0 0.0
2018-Feb-16 13:14N 45°14' E 019°46'0 0.0
2018-Feb-16 13:00N 45°14' E 019°46'0 0.0
2018-Feb-16 12:29N 45°14' E 019°46'0 0.0
2018-Feb-16 12:00N 45°14' E 019°46'0 0.0
2018-Feb-16 11:30N 45°14' E 019°46'0 0.0
2018-Feb-15 08:42N 45°14' E 019°46'0 0.0
2018-Feb-15 08:28N 45°14' E 019°46'0 0.0
2018-Feb-15 07:57N 45°14' E 019°46'0 0.0
2018-Feb-15 07:30N 45°14' E 019°46'0 0.0
2018-Feb-15 06:06N 45°14' E 019°46'0 0.0
2018-Feb-15 06:00N 45°14' E 019°46'0 0.0
2018-Feb-15 05:08N 45°14' E 019°46'0 0.0
2018-Feb-15 04:06N 45°14' E 019°46'0 0.0
2018-Feb-15 03:54N 45°14' E 019°46'0 0.0
2018-Feb-15 03:08N 45°14' E 019°46'0 0.0
2018-Feb-15 03:00N 45°14' E 019°46'0 0.0
2018-Feb-15 02:26N 45°14' E 019°46'0 0.0
2018-Feb-15 01:58N 45°14' E 019°46'0 0.0
2018-Feb-15 01:30N 45°14' E 019°46'0 0.0
2018-Feb-15 00:56N 45°14' E 019°46'0 0.0
2018-Feb-15 00:27N 45°14' E 019°46'0 0.0
2018-Feb-14 23:59N 45°14' E 019°46'0 0.0
2018-Feb-14 23:11N 45°14' E 019°46'0 0.0
2018-Feb-14 22:52N 45°14' E 019°46'0 0.0
2018-Feb-14 22:27N 45°14' E 019°46'0 0.0
2018-Feb-14 22:01N 45°14' E 019°46'0 0.0
2018-Feb-14 21:30N 45°14' E 019°46'0 0.0
2018-Feb-14 20:54N 45°14' E 019°46'0 0.0
2018-Feb-14 20:24N 45°14' E 019°46'0 0.0
2018-Feb-14 17:31N 45°14' E 019°46'0 0.0
2018-Feb-14 17:30N 45°14' E 019°46'0 0.0
2018-Feb-14 17:00N 45°14' E 019°46'0 0.0
2018-Feb-14 16:09N 45°14' E 019°46'0 0.0
2018-Feb-14 08:57N 45°14' E 019°46'0 0.0
2018-Feb-14 08:31N 45°14' E 019°46'0 0.0
2018-Feb-14 08:01N 45°14' E 019°46'0 0.0
2018-Feb-14 07:30N 45°14' E 019°46'0 0.0
2018-Feb-14 07:00N 45°14' E 019°46'0 0.0
2018-Feb-14 06:30N 45°14' E 019°46'0 0.0
2018-Feb-14 06:01N 45°14' E 019°46'0 0.0
2018-Feb-14 05:30N 45°14' E 019°46'0 0.0
2018-Feb-14 05:00N 45°14' E 019°46'0 0.0
2018-Feb-14 04:30N 45°14' E 019°46'0 0.0
2018-Feb-14 03:59N 45°14' E 019°46'0 0.0
2018-Feb-14 03:30N 45°14' E 019°46'0 0.0
2018-Feb-14 03:00N 45°14' E 019°46'0 0.0
2018-Feb-14 02:29N 45°14' E 019°46'0 0.0
2018-Feb-14 02:00N 45°14' E 019°46'0 0.0
2018-Feb-14 01:30N 45°14' E 019°46'0 0.0
2018-Feb-14 01:01N 45°14' E 019°46'0 0.0
2018-Feb-14 00:30N 45°14' E 019°46'0 0.0
2018-Feb-14 00:00N 45°14' E 019°46'0 0.0
2018-Feb-13 23:22N 45°14' E 019°46'0 0.0
2018-Feb-13 22:58N 45°14' E 019°46'0 0.0
2018-Feb-13 22:30N 45°14' E 019°46'0 0.0
2018-Feb-13 22:00N 45°14' E 019°46'0 0.0
2018-Feb-13 21:31N 45°14' E 019°46'0 0.0
2018-Feb-13 21:00N 45°14' E 019°46'0 0.0
2018-Feb-13 20:30N 45°14' E 019°46'0 0.0
2018-Feb-13 20:00N 45°14' E 019°46'0 0.0
2018-Feb-13 19:30N 45°14' E 019°46'0 0.0
2018-Feb-13 19:01N 45°14' E 019°46'0 0.0
2018-Feb-13 18:31N 45°14' E 019°46'0 0.0
2018-Feb-13 18:01N 45°14' E 019°46'0 0.0
2018-Feb-13 17:31N 45°14' E 019°46'0 0.0
2018-Feb-13 17:01N 45°14' E 019°46'0 0.0
2018-Feb-13 16:29N 45°14' E 019°46'0 0.0
2018-Feb-13 16:00N 45°14' E 019°46'0 0.0
2018-Feb-13 15:31N 45°14' E 019°46'0 0.0
2018-Feb-13 15:01N 45°14' E 019°46'0 0.0
2018-Feb-13 14:10N 45°14' E 019°46'0 0.0
2018-Feb-13 14:00N 45°14' E 019°46'0 0.0
2018-Feb-13 13:31N 45°14' E 019°46'0 0.0
2018-Feb-13 13:00N 45°14' E 019°46'0 0.0
2018-Feb-13 12:30N 45°14' E 019°46'0 0.0
2018-Feb-13 12:01N 45°14' E 019°46'0 0.0
2018-Feb-13 11:31N 45°14' E 019°46'0 0.0
2018-Feb-13 11:00N 45°14' E 019°46'0 0.0
2018-Feb-13 10:31N 45°14' E 019°46'0 0.0
2018-Feb-13 10:00N 45°14' E 019°46'0 0.0
2018-Feb-13 09:30N 45°14' E 019°46'0 0.0
2018-Feb-13 09:00N 45°14' E 019°46'0 0.0
2018-Feb-13 08:31N 45°14' E 019°46'0 0.0
2018-Feb-13 08:00N 45°14' E 019°46'0 0.1
2018-Feb-13 07:31N 45°14' E 019°46'0 0.0
2018-Feb-13 06:55N 45°14' E 019°46'0 0.0
2018-Feb-13 05:39N 45°14' E 019°46'0 0.0
2018-Feb-13 05:30N 45°14' E 019°46'0 0.0
2018-Feb-13 05:00N 45°14' E 019°46'0 0.0
2018-Feb-13 04:30N 45°14' E 019°46'0 0.0
2018-Feb-13 04:00N 45°14' E 019°46'0 0.0
2018-Feb-13 03:30N 45°14' E 019°46'0 0.0
2018-Feb-13 03:00N 45°14' E 019°46'0 0.0
2018-Feb-13 02:30N 45°14' E 019°46'0 0.0
2018-Feb-13 01:59N 45°14' E 019°46'0 0.0
2018-Feb-13 01:30N 45°14' E 019°46'0 0.0
2018-Feb-13 01:00N 45°14' E 019°46'0 0.0
2018-Feb-13 00:30N 45°14' E 019°46'0 0.0
2018-Feb-13 00:00N 45°14' E 019°46'0 0.0
2018-Feb-12 23:30N 45°14' E 019°46'0 0.0
2018-Feb-12 23:00N 45°14' E 019°46'0 0.0
2018-Feb-12 22:29N 45°14' E 019°46'0 0.0
2018-Feb-12 21:58N 45°14' E 019°46'0 0.0
2018-Feb-12 21:30N 45°14' E 019°46'0 0.0
2018-Feb-12 20:44N 45°14' E 019°46'0 0.0
2018-Feb-12 20:30N 45°14' E 019°46'0 0.0
2018-Feb-12 20:00N 45°14' E 019°46'0 0.0
2018-Feb-12 19:30N 45°14' E 019°46'0 0.0
2018-Feb-12 19:00N 45°14' E 019°46'0 0.0
2018-Feb-12 18:20N 45°14' E 019°46'0 0.0
2018-Feb-12 18:00N 45°14' E 019°46'0 0.0
2018-Feb-12 17:30N 45°14' E 019°46'0 0.0
2018-Feb-12 17:00N 45°14' E 019°46'0 0.0
2018-Feb-12 16:30N 45°14' E 019°46'0 0.0
2018-Feb-12 16:00N 45°14' E 019°46'0 0.0
2018-Feb-12 15:30N 45°14' E 019°46'0 0.0
2018-Feb-12 15:00N 45°14' E 019°46'0 0.4
2018-Feb-12 14:30N 45°14' E 019°46'0 0.3
2018-Feb-12 13:57N 45°14' E 019°46'0 0.0
2018-Feb-12 13:30N 45°14' E 019°46'0 0.0
2018-Feb-12 12:55N 45°14' E 019°46'0 0.0
2018-Feb-12 11:56N 45°14' E 019°46'0 0.0
2018-Feb-12 11:30N 45°14' E 019°46'0 0.0
2018-Feb-12 11:00N 45°14' E 019°46'0 0.0
2018-Feb-12 10:29N 45°14' E 019°46'0 0.0
2018-Feb-12 10:01N 45°14' E 019°46'0 0.0
2018-Feb-12 09:31N 45°14' E 019°46'0 0.0
2018-Feb-12 09:00N 45°14' E 019°46'0 0.0
2018-Feb-12 08:30N 45°14' E 019°46'0 0.1
2018-Feb-12 07:59N 45°14' E 019°46'0 0.1
2018-Feb-11 23:54N 45°14' E 019°46'18 1.0
2018-Feb-11 05:50N 45°11' E 020°11'2 2.2
2018-Feb-11 04:59N 45°10' E 020°14'2 2.5
2018-Feb-11 04:04N 45°09' E 020°16'1 2.4
2018-Feb-11 03:51N 45°08' E 020°16'1 2.1
2018-Feb-11 03:24N 45°07' E 020°17'1 2.1
2018-Feb-11 03:00N 45°07' E 020°18'3 1.9
2018-Feb-11 01:26N 45°04' E 020°20'1 2.2
2018-Feb-11 01:00N 45°03' E 020°21'1 2.1
2018-Feb-11 00:31N 45°02' E 020°22'1 2.3
2018-Feb-11 00:00N 45°01' E 020°22'1 1.9
2018-Feb-10 23:30N 45°00' E 020°21'1 1.8
2018-Feb-10 23:01N 45°00' E 020°20'1 1.8
2018-Feb-10 22:30N 44°60' E 020°19'1 1.9
2018-Feb-10 22:00N 44°59' E 020°18'1 2.1
2018-Feb-10 21:30N 44°59' E 020°17'1 1.9
2018-Feb-10 21:00N 44°58' E 020°17'1 1.8
2018-Feb-10 20:30N 44°57' E 020°18'1 2.0
2018-Feb-10 20:00N 44°56' E 020°19'1 2.0
2018-Feb-10 19:30N 44°55' E 020°20'1 2.3
2018-Feb-10 19:01N 44°54' E 020°21'1 2.5
2018-Feb-10 18:30N 44°53' E 020°21'1 2.4
2018-Feb-10 18:01N 44°52' E 020°22'1 2.3
2018-Feb-10 17:30N 44°52' E 020°24'1 2.5
2018-Feb-10 17:00N 44°51' E 020°25'1 2.6
2018-Feb-10 16:31N 44°50' E 020°27'1 2.2
2018-Feb-10 16:01N 44°50' E 020°28'1 2.1
2018-Feb-10 15:30N 44°50' E 020°30'1 2.3
2018-Feb-10 15:00N 44°50' E 020°31'1 2.4
2018-Feb-10 14:30N 44°50' E 020°33'1 2.3
2018-Feb-10 14:00N 44°51' E 020°34'1 2.3
2018-Feb-10 13:30N 44°51' E 020°36'1 2.3
2018-Feb-10 12:59N 44°51' E 020°38'1 2.3
2018-Feb-10 12:30N 44°50' E 020°38'1 2.1
2018-Feb-10 12:01N 44°49' E 020°39'1 2.2
2018-Feb-10 11:30N 44°48' E 020°38'3 2.2
2018-Feb-10 10:07N 44°45' E 020°38'0 2.1
2018-Feb-10 09:59N 44°45' E 020°39'1 2.2
2018-Feb-10 09:31N 44°44' E 020°40'10 2.0
2018-Feb-10 04:23N 44°40' E 020°53'4 2.3
2018-Feb-10 02:48N 44°42' E 020°57'2 0.7
2018-Feb-09 23:40N 44°43' E 020°60'0 0.0
2018-Feb-09 23:27N 44°43' E 020°60'0 0.0
2018-Feb-09 23:00N 44°43' E 020°60'0 0.0
2018-Feb-09 22:46N 44°43' E 020°60'0 0.0
2018-Feb-09 22:00N 44°43' E 020°60'0 0.0
2018-Feb-09 21:00N 44°43' E 020°60'0 0.2
2018-Feb-09 20:31N 44°43' E 020°60'0 0.3
2018-Feb-09 20:01N 44°43' E 020°59'0 0.2
2018-Feb-09 19:31N 44°43' E 020°60'0 0.0
2018-Feb-09 19:01N 44°43' E 020°60'0 0.0
2018-Feb-09 18:30N 44°43' E 020°60'0 0.0
2018-Feb-09 18:01N 44°43' E 020°60'0 0.0
2018-Feb-09 17:30N 44°43' E 020°60'0 0.0
2018-Feb-09 17:00N 44°43' E 020°60'0 0.0
2018-Feb-09 15:30N 44°43' E 020°60'0 0.5
2018-Feb-09 15:01N 44°43' E 020°59'0 0.2
2018-Feb-09 14:30N 44°43' E 020°59'0 0.0
2018-Feb-09 14:01N 44°43' E 020°59'0 0.0
2018-Feb-09 13:30N 44°43' E 020°59'0 0.0
2018-Feb-09 13:01N 44°43' E 020°59'  

Dump ship's entire track history